createdAt,value
2016-12-23T00:00:39.247Z,84.74
2016-12-23T00:01:48.743Z,84.84
2016-12-23T00:02:58.298Z,84.36
2016-12-23T00:04:07.767Z,84.46
2016-12-23T00:05:17.611Z,84.46
2016-12-23T00:06:27.392Z,84.55
2016-12-23T00:07:37.190Z,84.84
2016-12-23T00:08:46.999Z,84.84
2016-12-23T00:09:56.825Z,84.94
2016-12-23T00:11:06.423Z,84.08
2016-12-23T00:12:15.934Z,83.98
2016-12-23T00:13:25.419Z,84.36
2016-12-23T00:14:35.254Z,84.46
2016-12-23T00:15:45.051Z,84.65
2016-12-23T00:16:54.843Z,84.08
2016-12-23T00:18:04.664Z,84.46
2016-12-23T00:19:14.449Z,84.74
2016-12-23T00:20:23.969Z,84.84
2016-12-23T00:21:33.773Z,84.55
2016-12-23T00:22:43.245Z,85.03
2016-12-23T00:23:53.124Z,84.65
2016-12-23T00:25:02.971Z,85.03
2016-12-23T00:26:12.746Z,84.84
2016-12-23T00:27:22.522Z,84.55
2016-12-23T00:28:32.310Z,85.03
2016-12-23T00:29:42.085Z,84.65
2016-12-23T00:30:51.894Z,84.65
2016-12-23T00:32:01.700Z,84.84
2016-12-23T00:33:11.503Z,84.84
2016-12-23T00:34:20.662Z,85.03
2016-12-23T00:35:30.161Z,84.36
2016-12-23T00:36:39.992Z,84.46
2016-12-23T00:37:49.817Z,84.46
2016-12-23T00:38:59.626Z,84.46
2016-12-23T00:40:09.434Z,84.74
2016-12-23T00:41:19.272Z,84.84
2016-12-23T00:42:29.071Z,84.27
2016-12-23T00:43:38.907Z,84.94
2016-12-23T00:44:48.696Z,84.94
2016-12-23T00:45:58.175Z,84.08
2016-12-23T00:47:08.012Z,84.46
2016-12-23T00:48:17.484Z,84.41
2016-12-23T00:49:27.311Z,84.65
2016-12-23T00:50:37.113Z,84.46
2016-12-23T00:51:46.903Z,84.46
2016-12-23T00:52:56.691Z,84.22
2016-12-23T00:54:06.182Z,84.5
2016-12-23T00:55:15.713Z,84.46
2016-12-23T00:56:25.313Z,84.41
2016-12-23T00:57:35.091Z,84.5
2016-12-23T00:58:44.565Z,84.41
2016-12-23T00:59:54.358Z,84.5
2016-12-23T01:01:03.523Z,84.5
2016-12-23T01:02:13.334Z,84.22
2016-12-23T01:03:23.202Z,83.84
2016-12-23T01:04:32.691Z,83.84
2016-12-23T01:05:42.576Z,83.94
2016-12-23T01:06:52.378Z,84.22
2016-12-23T01:08:02.168Z,83.94
2016-12-23T01:09:11.675Z,84.03
2016-12-23T01:10:21.153Z,84.22
2016-12-23T01:11:30.994Z,83.84
2016-12-23T01:12:40.794Z,83.65
2016-12-23T01:13:50.307Z,84.12
2016-12-23T01:15:00.111Z,83.94
2016-12-23T01:16:09.686Z,84.41
2016-12-23T01:17:19.485Z,84.03
2016-12-23T01:18:29.296Z,84.31
2016-12-23T01:19:39.091Z,84.12
2016-12-23T01:20:48.895Z,83.46
2016-12-23T01:21:58.441Z,83.65
2016-12-23T01:23:07.929Z,83.84
2016-12-23T01:24:17.393Z,83.65
2016-12-23T01:25:27.301Z,83.94
2016-12-23T01:26:37.208Z,83.65
2016-12-23T01:27:46.992Z,83.65
2016-12-23T01:28:56.769Z,83.74
2016-12-23T01:30:06.256Z,83.65
2016-12-23T01:31:15.419Z,83.65
2016-12-23T01:32:25.220Z,84.03
2016-12-23T01:33:35.010Z,84.31
2016-12-23T01:34:44.785Z,83.55
2016-12-23T01:35:54.254Z,83.65
2016-12-23T01:37:03.847Z,83.74
2016-12-23T01:38:13.399Z,84.5
2016-12-23T01:39:23.204Z,84.5
2016-12-23T01:40:32.708Z,84.12
2016-12-23T01:41:42.496Z,84.69
2016-12-23T01:42:51.972Z,84.98
2016-12-23T01:44:01.788Z,84.69
2016-12-23T01:45:11.598Z,84.98
2016-12-23T01:46:21.447Z,84.78
2016-12-23T01:47:31.243Z,84.98
2016-12-23T01:48:41.012Z,84.78
2016-12-23T01:49:50.485Z,85.07
2016-12-23T01:51:00.416Z,84.5
2016-12-23T01:52:10.204Z,84.59
2016-12-23T01:53:20.046Z,84.5
2016-12-23T01:54:29.922Z,84.22
2016-12-23T01:55:39.761Z,84.31
2016-12-23T01:56:49.577Z,84.31
2016-12-23T01:57:59.115Z,84.5
2016-12-23T01:59:09.015Z,84.41
2016-12-23T02:00:18.801Z,84.22
2016-12-23T02:01:28.668Z,84.41
2016-12-23T02:02:38.450Z,84.31
2016-12-23T02:03:48.254Z,84.31
2016-12-23T02:04:58.074Z,84.5
2016-12-23T02:06:07.865Z,84.41
2016-12-23T02:07:17.437Z,84.22
2016-12-23T02:08:27.216Z,84.41
2016-12-23T02:09:37.046Z,84.12
2016-12-23T02:10:46.529Z,84.41
2016-12-23T02:11:56.307Z,83.94
2016-12-23T02:13:05.858Z,83.84
2016-12-23T02:14:15.676Z,84.22
2016-12-23T02:15:25.523Z,84.22
2016-12-23T02:16:35.369Z,84.03
2016-12-23T02:17:45.153Z,84.03
2016-12-23T02:18:54.645Z,83.94
2016-12-23T02:20:04.439Z,84.22
2016-12-23T02:21:13.929Z,83.65
2016-12-23T02:22:23.721Z,84.31
2016-12-23T02:23:33.582Z,84.22
2016-12-23T02:24:43.356Z,83.84
2016-12-23T02:25:53.136Z,83.65
2016-12-23T02:27:02.908Z,83.55
2016-12-23T02:28:12.711Z,83.74
2016-12-23T02:29:22.636Z,83.55
2016-12-23T02:30:32.485Z,83.74
2016-12-23T02:31:41.650Z,83.84
2016-12-23T02:32:51.157Z,83.74
2016-12-23T02:34:00.009Z,83.46
2016-12-23T02:35:09.826Z,83.94
2016-12-23T02:36:19.388Z,83.84
2016-12-23T02:37:29.167Z,83.94
2016-12-23T02:38:39.009Z,83.65
2016-12-23T02:39:48.857Z,83.84
2016-12-23T02:40:58.666Z,83.65
2016-12-23T02:42:08.493Z,83.84
2016-12-23T02:43:18.320Z,83.55
2016-12-23T02:44:28.129Z,83.94
2016-12-23T02:45:37.611Z,83.55
2016-12-23T02:46:47.106Z,83.65
2016-12-23T02:47:56.937Z,83.84
2016-12-23T02:49:06.760Z,84.03
2016-12-23T02:50:16.585Z,83.65
2016-12-23T02:51:26.363Z,83.94
2016-12-23T02:52:36.172Z,84.27
2016-12-23T02:53:45.953Z,83.89
2016-12-23T02:54:55.767Z,84.03
2016-12-23T02:56:05.587Z,83.89
2016-12-23T02:57:15.083Z,83.89
2016-12-23T02:58:24.866Z,84.08
2016-12-23T02:59:34.459Z,83.7
2016-12-23T03:00:43.617Z,83.98
2016-12-23T03:01:53.105Z,83.98
2016-12-23T03:03:03.042Z,83.98
2016-12-23T03:04:12.829Z,83.8
2016-12-23T03:05:22.620Z,83.8
2016-12-23T03:06:32.093Z,84.08
2016-12-23T03:07:41.903Z,83.89
2016-12-23T03:08:51.685Z,83.98
2016-12-23T03:10:01.626Z,84.08
2016-12-23T03:11:11.435Z,84.17
2016-12-23T03:12:21.336Z,84.27
2016-12-23T03:13:30.834Z,84.27
2016-12-23T03:14:40.479Z,84.27
2016-12-23T03:15:50.254Z,84.27
2016-12-23T03:17:00.061Z,84.36
2016-12-23T03:18:09.916Z,84.27
2016-12-23T03:19:19.712Z,84.17
2016-12-23T03:20:29.539Z,84.17
2016-12-23T03:21:39.044Z,84.17
2016-12-23T03:22:48.844Z,84.46
2016-12-23T03:23:58.674Z,84.36
2016-12-23T03:25:08.491Z,83.98
2016-12-23T03:26:18.288Z,84.65
2016-12-23T03:27:28.086Z,84.94
2016-12-23T03:28:37.906Z,84.84
2016-12-23T03:29:47.712Z,84.55
2016-12-23T03:30:57.671Z,84.84
2016-12-23T03:32:07.504Z,84.84
2016-12-23T03:33:16.997Z,84.65
2016-12-23T03:34:26.773Z,84.89
2016-12-23T03:35:36.259Z,84.8
2016-12-23T03:36:46.050Z,84.7
2016-12-23T03:37:55.551Z,84.7
2016-12-23T03:39:05.354Z,84.61
2016-12-23T03:40:15.136Z,84.61
2016-12-23T03:41:24.935Z,84.99
2016-12-23T03:42:34.198Z,84.51
2016-12-23T03:43:44.020Z,84.8
2016-12-23T03:44:53.846Z,84.89
2016-12-23T03:46:03.635Z,85.08
2016-12-23T03:47:13.666Z,84.51
2016-12-23T03:48:23.449Z,84.32
2016-12-23T03:49:33.305Z,84.32
2016-12-23T03:50:43.101Z,85.08
2016-12-23T03:51:52.873Z,85.08
2016-12-23T03:53:02.660Z,85.08
2016-12-23T03:54:12.141Z,85.17
2016-12-23T03:55:22.051Z,85.55
2016-12-23T03:56:31.229Z,85.17
2016-12-23T03:57:40.436Z,85.27
2016-12-23T03:58:49.609Z,85.17
2016-12-23T03:59:59.391Z,85.17
2016-12-23T04:01:09.207Z,85.27
2016-12-23T04:02:18.685Z,85.36
2016-12-23T04:03:28.617Z,85.55
2016-12-23T04:04:38.408Z,85.36
2016-12-23T04:05:47.879Z,85.74
2016-12-23T04:06:57.709Z,85.84
2016-12-23T04:08:07.193Z,86.22
2016-12-23T04:09:16.707Z,85.74
2016-12-23T04:10:26.505Z,86.31
2016-12-23T04:11:36.313Z,86.03
2016-12-23T04:12:46.118Z,86.41
2016-12-23T04:13:55.927Z,86.5
2016-12-23T04:15:05.733Z,86.31
2016-12-23T04:16:15.568Z,86.6
2016-12-23T04:17:25.434Z,86.22
2016-12-23T04:18:35.223Z,86.22
2016-12-23T04:19:45.043Z,86.5
2016-12-23T04:20:54.545Z,86.03
2016-12-23T04:22:04.354Z,86.31
2016-12-23T04:23:14.226Z,86.31
2016-12-23T04:24:23.764Z,86.5
2016-12-23T04:25:33.555Z,86.5
2016-12-23T04:26:43.393Z,86.12
2016-12-23T04:27:53.191Z,86.22
2016-12-23T04:29:02.969Z,86.31
2016-12-23T04:30:12.473Z,86.6
2016-12-23T04:31:22.261Z,86.12
2016-12-23T04:32:31.793Z,86.22
2016-12-23T04:33:41.576Z,86.22
2016-12-23T04:34:51.337Z,86.41
2016-12-23T04:36:01.114Z,86.41
2016-12-23T04:37:10.631Z,86.22
2016-12-23T04:38:20.419Z,86.5
2016-12-23T04:39:29.920Z,86.31
2016-12-23T04:40:39.713Z,86.22
2016-12-23T04:41:49.478Z,86.41
2016-12-23T04:42:59.313Z,86.12
2016-12-23T04:44:09.101Z,85.93
2016-12-23T04:45:18.572Z,86.12
2016-12-23T04:46:28.414Z,86.12
2016-12-23T04:47:38.183Z,86.41
2016-12-23T04:48:47.992Z,86.36
2016-12-23T04:49:57.160Z,86.36
2016-12-23T04:51:07.090Z,86.18
2016-12-23T04:52:16.869Z,86.46
2016-12-23T04:53:26.651Z,86.46
2016-12-23T04:54:36.488Z,86.46
2016-12-23T04:55:46.336Z,86.55
2016-12-23T04:56:55.807Z,86.55
2016-12-23T04:58:05.650Z,86.46
2016-12-23T04:59:15.122Z,87.02
2016-12-23T05:00:24.650Z,86.74
2016-12-23T05:01:34.551Z,86.93
2016-12-23T05:02:44.341Z,86.74
2016-12-23T05:03:54.178Z,86.83
2016-12-23T05:05:03.978Z,87.02
2016-12-23T05:06:13.810Z,86.74
2016-12-23T05:07:23.305Z,86.65
2016-12-23T05:08:33.096Z,86.65
2016-12-23T05:09:42.960Z,86.83
2016-12-23T05:10:52.432Z,86.65
2016-12-23T05:12:02.207Z,87.02
2016-12-23T05:13:12.067Z,86.74
2016-12-23T05:14:21.612Z,86.74
2016-12-23T05:15:31.421Z,87.02
2016-12-23T05:16:41.228Z,87.12
2016-12-23T05:17:50.727Z,86.27
2016-12-23T05:19:00.509Z,86.65
2016-12-23T05:20:10.310Z,86.46
2016-12-23T05:21:20.082Z,86.46
2016-12-23T05:22:29.869Z,86.46
2016-12-23T05:23:39.353Z,86.55
2016-12-23T05:24:49.319Z,86.36
2016-12-23T05:25:59.089Z,86.74
2016-12-23T05:27:08.927Z,86.36
2016-12-23T05:28:18.709Z,86.55
2016-12-23T05:29:28.490Z,86.36
2016-12-23T05:30:38.277Z,86.36
2016-12-23T05:31:48.111Z,86.46
2016-12-23T05:32:57.913Z,86.36
2016-12-23T05:34:07.732Z,86.55
2016-12-23T05:35:17.584Z,86.55
2016-12-23T05:36:27.052Z,86.27
2016-12-23T05:37:36.550Z,86.27
2016-12-23T05:38:46.013Z,86.36
2016-12-23T05:39:55.188Z,86.46
2016-12-23T05:41:04.668Z,86.27
2016-12-23T05:42:14.455Z,86.08
2016-12-23T05:43:23.954Z,86.36
2016-12-23T05:44:33.738Z,86.36
2016-12-23T05:45:43.555Z,86.36
2016-12-23T05:46:53.027Z,86.41
2016-12-23T05:48:02.934Z,86.03
2016-12-23T05:49:12.717Z,86.03
2016-12-23T05:50:22.448Z,85.93
2016-12-23T05:51:31.949Z,85.61
2016-12-23T05:52:41.720Z,85.74
2016-12-23T05:53:51.185Z,85.74
2016-12-23T05:55:01.024Z,85.46
2016-12-23T05:56:10.834Z,85.93
2016-12-23T05:57:20.321Z,85.84
2016-12-23T05:58:29.791Z,85.74
2016-12-23T05:59:39.756Z,85.36
2016-12-23T06:00:49.557Z,85.55
2016-12-23T06:01:59.333Z,85.46
2016-12-23T06:03:09.114Z,85.27
2016-12-23T06:04:18.942Z,85.27
2016-12-23T06:05:28.731Z,85.27
2016-12-23T06:06:38.521Z,85.36
2016-12-23T06:07:48.350Z,85.08
2016-12-23T06:08:58.112Z,84.99
2016-12-23T06:10:07.907Z,84.89
2016-12-23T06:11:17.694Z,84.89
2016-12-23T06:12:27.518Z,84.42
2016-12-23T06:13:37.312Z,84.32
2016-12-23T06:14:47.088Z,84.51
2016-12-23T06:15:56.248Z,84.42
2016-12-23T06:17:06.058Z,84.32
2016-12-23T06:18:15.853Z,84.42
2016-12-23T06:19:25.658Z,84.8
2016-12-23T06:20:35.450Z,84.13
2016-12-23T06:21:45.236Z,84.51
2016-12-23T06:22:55.014Z,84.32
2016-12-23T06:24:04.721Z,84.8
2016-12-23T06:25:14.571Z,84.61
2016-12-23T06:26:24.379Z,84.8
2016-12-23T06:27:34.193Z,84.99
2016-12-23T06:28:44.012Z,84.51
2016-12-23T06:29:54.010Z,84.04
2016-12-23T06:31:03.808Z,84.32
2016-12-23T06:32:13.283Z,84.32
2016-12-23T06:33:22.837Z,84.42
2016-12-23T06:34:32.114Z,84.61
2016-12-23T06:35:41.606Z,84.04
2016-12-23T06:36:51.083Z,84.04
2016-12-23T06:38:00.967Z,84.23
2016-12-23T06:39:10.131Z,84.32
2016-12-23T06:40:19.907Z,84.23
2016-12-23T06:41:29.700Z,84.23
2016-12-23T06:42:39.219Z,84.23
2016-12-23T06:43:48.693Z,84.32
2016-12-23T06:44:58.558Z,84.04
2016-12-23T06:46:08.347Z,84.23
2016-12-23T06:47:18.168Z,84.13
2016-12-23T06:48:27.969Z,84.23
2016-12-23T06:49:37.778Z,84.42
2016-12-23T06:50:47.589Z,83.85
2016-12-23T06:51:57.287Z,83.85
2016-12-23T06:53:07.080Z,83.85
2016-12-23T06:54:16.591Z,84.23
2016-12-23T06:55:26.140Z,83.56
2016-12-23T06:56:35.333Z,83.56
2016-12-23T06:57:45.168Z,83.47
2016-12-23T06:58:54.632Z,83.37
2016-12-23T07:00:04.435Z,83.85
2016-12-23T07:01:14.218Z,83.94
2016-12-23T07:02:23.724Z,83.85
2016-12-23T07:03:33.520Z,83.75
2016-12-23T07:04:43.332Z,83.94
2016-12-23T07:05:52.666Z,83.85
2016-12-23T07:07:02.151Z,83.56
2016-12-23T07:08:11.969Z,83.75
2016-12-23T07:09:21.791Z,83.75
2016-12-23T07:10:31.762Z,83.75
2016-12-23T07:11:41.551Z,83.94
2016-12-23T07:12:51.350Z,83.66
2016-12-23T07:14:00.826Z,83.75
2016-12-23T07:15:10.606Z,83.75
2016-12-23T07:16:20.429Z,83.56
2016-12-23T07:17:30.348Z,83.85
2016-12-23T07:18:39.536Z,83.66
2016-12-23T07:19:49.418Z,83.66
2016-12-23T07:20:59.194Z,83.56
2016-12-23T07:22:09.019Z,83.37
2016-12-23T07:23:18.856Z,83.56
2016-12-23T07:24:28.638Z,83.37
2016-12-23T07:25:38.505Z,83.85
2016-12-23T07:26:48.307Z,83.56
2016-12-23T07:27:58.164Z,83.37
2016-12-23T07:29:07.949Z,83.56
2016-12-23T07:30:17.543Z,83.47
2016-12-23T07:31:27.315Z,83.47
2016-12-23T07:32:37.111Z,83.66
2016-12-23T07:33:46.907Z,83.94
2016-12-23T07:34:56.393Z,83.75
2016-12-23T07:36:06.179Z,83.75
2016-12-23T07:37:15.960Z,82.9
2016-12-23T07:38:25.769Z,83.28
2016-12-23T07:39:35.598Z,83.18
2016-12-23T07:40:45.393Z,83
2016-12-23T07:41:55.180Z,83.09
2016-12-23T07:43:04.675Z,83.09
2016-12-23T07:44:14.519Z,83.09
2016-12-23T07:45:24.301Z,82.9
2016-12-23T07:46:34.124Z,83
2016-12-23T07:47:43.930Z,82.71
2016-12-23T07:48:53.729Z,82.75
2016-12-23T07:50:03.514Z,82.71
2016-12-23T07:51:13.307Z,82.47
2016-12-23T07:52:23.113Z,82.37
2016-12-23T07:53:32.903Z,82.37
2016-12-23T07:54:42.400Z,82.28
2016-12-23T07:55:52.225Z,82.47
2016-12-23T07:57:02.007Z,82.37
2016-12-23T07:58:11.788Z,82.28
2016-12-23T07:59:21.589Z,82.56
2016-12-23T08:00:31.372Z,82.28
2016-12-23T08:01:41.146Z,82.28
2016-12-23T08:02:50.934Z,82.37
2016-12-23T08:04:00.413Z,82.09
2016-12-23T08:05:10.223Z,82.09
2016-12-23T08:06:20.030Z,82.09
2016-12-23T08:07:29.844Z,81.33
2016-12-23T08:08:39.311Z,81.81
2016-12-23T08:09:49.111Z,81.43
2016-12-23T08:10:58.600Z,81.62
2016-12-23T08:12:08.430Z,81.9
2016-12-23T08:13:17.935Z,81.81
2016-12-23T08:14:27.791Z,81.43
2016-12-23T08:15:37.272Z,81.81
2016-12-23T08:16:46.789Z,81.14
2016-12-23T08:17:56.587Z,81.14
2016-12-23T08:19:06.395Z,81.05
2016-12-23T08:20:15.878Z,80.95
2016-12-23T08:21:25.780Z,81.43
2016-12-23T08:22:35.563Z,81.33
2016-12-23T08:23:45.497Z,81.33
2016-12-23T08:24:54.975Z,81.14
2016-12-23T08:26:04.773Z,81.33
2016-12-23T08:27:14.249Z,81.05
2016-12-23T08:28:24.122Z,81.05
2016-12-23T08:29:33.919Z,80.67
2016-12-23T08:30:43.823Z,80.95
2016-12-23T08:31:53.620Z,80.86
2016-12-23T08:33:03.217Z,80.67
2016-12-23T08:34:12.702Z,80.86
2016-12-23T08:35:22.468Z,81.18
2016-12-23T08:36:32.283Z,80.43
2016-12-23T08:37:41.829Z,80.62
2016-12-23T08:38:51.604Z,80.52
2016-12-23T08:40:01.560Z,80.52
2016-12-23T08:41:11.353Z,80.71
2016-12-23T08:42:21.143Z,80.62
2016-12-23T08:43:30.935Z,80.52
2016-12-23T08:44:40.416Z,80.8
2016-12-23T08:45:50.226Z,79.95
2016-12-23T08:47:00.016Z,79.66
2016-12-23T08:48:09.511Z,79.76
2016-12-23T08:49:19.323Z,79.66
2016-12-23T08:50:28.836Z,79.76
2016-12-23T08:51:38.630Z,79.85
2016-12-23T08:52:48.469Z,80.08
2016-12-23T08:53:58.285Z,79.04
2016-12-23T08:55:07.780Z,79.23
2016-12-23T08:56:17.586Z,78.66
2016-12-23T08:57:27.585Z,78.66
2016-12-23T08:58:37.383Z,79.33
2016-12-23T08:59:46.861Z,78.85
2016-12-23T09:00:56.441Z,78.95
2016-12-23T09:02:06.258Z,78.95
2016-12-23T09:03:15.741Z,79.14
2016-12-23T09:04:25.547Z,78.85
2016-12-23T09:05:35.331Z,78.75
2016-12-23T09:06:45.208Z,78.66
2016-12-23T09:07:55.167Z,78.75
2016-12-23T09:09:05.003Z,78.85
2016-12-23T09:10:14.489Z,78.66
2016-12-23T09:11:24.346Z,78.75
2016-12-23T09:12:33.840Z,78.28
2016-12-23T09:13:43.618Z,78.19
2016-12-23T09:14:53.414Z,78.56
2016-12-23T09:16:03.212Z,78.38
2016-12-23T09:17:13.021Z,78.38
2016-12-23T09:18:22.868Z,78.56
2016-12-23T09:19:32.701Z,78.56
2016-12-23T09:20:42.501Z,78.66
2016-12-23T09:21:52.379Z,78.47
2016-12-23T09:23:02.248Z,78.38
2016-12-23T09:24:12.065Z,78.28
2016-12-23T09:25:21.919Z,78.28
2016-12-23T09:26:31.748Z,78.38
2016-12-23T09:27:41.573Z,78.19
2016-12-23T09:28:51.370Z,82.31
2016-12-23T09:30:01.320Z,84.59
2016-12-23T09:31:11.137Z,83.92
2016-12-23T09:32:20.648Z,83.3
2016-12-23T09:33:30.481Z,80.93
2016-12-23T09:34:40.003Z,79.41
2016-12-23T09:35:49.826Z,78.64
2016-12-23T09:36:59.611Z,78.93
2016-12-23T09:38:09.408Z,78.83
2016-12-23T09:39:18.910Z,78.45
2016-12-23T09:40:28.437Z,78.36
2016-12-23T09:41:38.260Z,78.55
2016-12-23T09:42:48.043Z,78.08
2016-12-23T09:43:57.834Z,77.7
2016-12-23T09:45:07.628Z,77.7
2016-12-23T09:46:17.411Z,77.98
2016-12-23T09:47:26.895Z,78.08
2016-12-23T09:48:36.503Z,77.31
2016-12-23T09:49:46.322Z,77.51
2016-12-23T09:50:56.151Z,77.22
2016-12-23T09:52:05.936Z,76.37
2016-12-23T09:53:15.756Z,76.65
2016-12-23T09:54:25.572Z,76.37
2016-12-23T09:55:35.537Z,75.7
2016-12-23T09:56:45.371Z,76.08
2016-12-23T09:57:55.159Z,76.08
2016-12-23T09:59:04.962Z,75.99
2016-12-23T10:00:14.504Z,75.6
2016-12-23T10:01:24.288Z,75.79
2016-12-23T10:02:34.239Z,75.6
2016-12-23T10:03:44.091Z,75.6
2016-12-23T10:04:53.871Z,75.42
2016-12-23T10:06:03.378Z,75.51
2016-12-23T10:07:13.365Z,74.94
2016-12-23T10:08:22.861Z,75.42
2016-12-23T10:09:32.740Z,74.75
2016-12-23T10:10:42.563Z,74.66
2016-12-23T10:11:52.377Z,74.47
2016-12-23T10:13:02.177Z,74.66
2016-12-23T10:14:11.774Z,74.37
2016-12-23T10:15:21.618Z,74.37
2016-12-23T10:16:31.484Z,74.51
2016-12-23T10:17:41.004Z,74.51
2016-12-23T10:18:50.843Z,74.03
2016-12-23T10:20:00.650Z,74.03
2016-12-23T10:21:10.164Z,73.59
2016-12-23T10:22:19.798Z,73.69
2016-12-23T10:23:29.761Z,72.92
2016-12-23T10:24:39.644Z,72.83
2016-12-23T10:25:49.446Z,72.64
2016-12-23T10:26:59.414Z,71.59
2016-12-23T10:28:09.031Z,71.41
2016-12-23T10:29:18.849Z,72.16
2016-12-23T10:30:28.644Z,71.97
2016-12-23T10:31:38.442Z,72.26
2016-12-23T10:32:48.221Z,72.13
2016-12-23T10:33:58.040Z,72.79
2016-12-23T10:35:07.854Z,72.41
2016-12-23T10:36:17.634Z,72.99
2016-12-23T10:37:27.465Z,72.7
2016-12-23T10:38:37.486Z,73.04
2016-12-23T10:39:46.992Z,73.33
2016-12-23T10:40:56.811Z,73.52
2016-12-23T10:42:06.603Z,73.42
2016-12-23T10:43:16.580Z,73.42
2016-12-23T10:44:26.410Z,73.52
2016-12-23T10:45:36.207Z,73.71
2016-12-23T10:46:46.030Z,73.33
2016-12-23T10:47:55.742Z,73.52
2016-12-23T10:49:05.566Z,73.08
2016-12-23T10:50:15.355Z,73.27
2016-12-23T10:51:25.218Z,72.74
2016-12-23T10:52:35.025Z,72.26
2016-12-23T10:53:44.572Z,72.39
2016-12-23T10:54:54.367Z,71.38
2016-12-23T10:56:04.185Z,70.52
2016-12-23T10:57:13.696Z,69.51
2016-12-23T10:58:23.495Z,69.51
2016-12-23T10:59:36.564Z,68.5
2016-12-23T11:00:46.354Z,66.88
2016-12-23T11:01:56.197Z,66.53
2016-12-23T11:03:05.697Z,65.58
2016-12-23T11:04:15.203Z,65.42
2016-12-23T11:05:25.023Z,65.42
2016-12-23T11:06:34.856Z,65.04
2016-12-23T11:07:44.708Z,64.09
2016-12-23T11:08:54.507Z,64.09
2016-12-23T11:10:04.385Z,64.28
2016-12-23T11:11:14.218Z,62.88
2016-12-23T11:12:24.045Z,62.88
2016-12-23T11:13:33.867Z,62.97
2016-12-23T11:14:43.663Z,62.75
2016-12-23T11:15:53.811Z,62.02
2016-12-23T11:17:03.634Z,62.08
2016-12-23T11:18:13.106Z,61.99
2016-12-23T11:19:22.919Z,61.13
2016-12-23T11:20:32.732Z,61.6
2016-12-23T11:21:42.643Z,62.18
2016-12-23T11:22:52.456Z,62.27
2016-12-23T11:24:02.358Z,61.96
2016-12-23T11:25:12.172Z,62.24
2016-12-23T11:26:21.857Z,61.54
2016-12-23T11:27:32.147Z,62.4
2016-12-23T11:28:41.629Z,63.07
2016-12-23T11:29:51.451Z,63.6
2016-12-23T11:31:01.285Z,63.89
2016-12-23T11:32:11.204Z,64.43
2016-12-23T11:33:20.694Z,64.81
2016-12-23T11:34:30.181Z,65.45
2016-12-23T11:35:40.062Z,65.92
2016-12-23T11:36:49.865Z,66.68
2016-12-23T11:37:59.675Z,67.32
2016-12-23T11:39:09.502Z,67.6
2016-12-23T11:40:19.088Z,67.69
2016-12-23T11:41:28.605Z,68.46
2016-12-23T11:42:38.446Z,69.09
2016-12-23T11:43:48.267Z,69.27
2016-12-23T11:44:58.152Z,69.85
2016-12-23T11:46:07.979Z,69.66
2016-12-23T11:47:17.801Z,70.07
2016-12-23T11:48:27.638Z,70.36
2016-12-23T11:49:37.147Z,70.54
2016-12-23T11:50:47.024Z,69.98
2016-12-23T11:51:56.915Z,70.36
2016-12-23T11:53:06.754Z,69.88
2016-12-23T11:54:16.593Z,70.26
2016-12-23T11:55:26.391Z,70.1
2016-12-23T11:56:35.878Z,70.36
2016-12-23T11:57:45.726Z,70.2
2016-12-23T11:58:55.598Z,69.98
2016-12-23T12:00:05.395Z,70.36
2016-12-23T12:01:15.193Z,70.83
2016-12-23T12:02:24.981Z,70.93
2016-12-23T12:03:34.795Z,71.31
2016-12-23T12:04:44.308Z,70.93
2016-12-23T12:05:54.164Z,71.41
2016-12-23T12:07:04.048Z,71.59
2016-12-23T12:08:13.544Z,72.22
2016-12-23T12:09:23.106Z,72.16
2016-12-23T12:10:32.936Z,72.22
2016-12-23T12:11:42.830Z,72.16
2016-12-23T12:12:52.641Z,72.32
2016-12-23T12:14:02.148Z,72.16
2016-12-23T12:15:11.965Z,71.97
2016-12-23T12:16:21.507Z,72.07
2016-12-23T12:17:31.424Z,71.69
2016-12-23T12:18:41.293Z,71.59
2016-12-23T12:19:50.801Z,71.5
2016-12-23T12:21:00.640Z,71.59
2016-12-23T12:22:10.491Z,71.25
2016-12-23T12:23:20.333Z,71.82
2016-12-23T12:24:30.128Z,71.34
2016-12-23T12:25:39.952Z,71.34
2016-12-23T12:26:49.812Z,71.44
2016-12-23T12:27:59.890Z,70.87
2016-12-23T12:29:09.829Z,70.87
2016-12-23T12:30:19.634Z,70.87
2016-12-23T12:31:29.452Z,70.93
2016-12-23T12:32:39.258Z,71.02
2016-12-23T12:33:49.058Z,71.22
2016-12-23T12:34:58.860Z,71.31
2016-12-23T12:36:08.656Z,71.69
2016-12-23T12:37:18.479Z,71.5
2016-12-23T12:38:28.275Z,72.07
2016-12-23T12:39:38.066Z,71.78
2016-12-23T12:40:47.914Z,72.22
2016-12-23T12:41:57.733Z,71.94
2016-12-23T12:43:07.559Z,72.79
2016-12-23T12:44:17.054Z,72.41
2016-12-23T12:45:26.584Z,72.41
2016-12-23T12:46:36.068Z,72.51
2016-12-23T12:47:45.552Z,72.6
2016-12-23T12:48:55.357Z,72.79
2016-12-23T12:50:05.160Z,72.79
2016-12-23T12:51:15.125Z,72.79
2016-12-23T12:52:24.923Z,72.79
2016-12-23T12:53:34.871Z,72.79
2016-12-23T12:54:44.667Z,72.89
2016-12-23T12:55:54.453Z,72.99
2016-12-23T12:57:04.269Z,73.18
2016-12-23T12:58:13.754Z,73.18
2016-12-23T12:59:23.249Z,73.27
2016-12-23T13:00:33.107Z,73.08
2016-12-23T13:01:42.892Z,73.21
2016-12-23T13:02:52.755Z,73.3
2016-12-23T13:04:02.551Z,73.02
2016-12-23T13:05:12.501Z,73.21
2016-12-23T13:06:22.381Z,73.02
2016-12-23T13:07:32.191Z,73.21
2016-12-23T13:08:42.007Z,73.21
2016-12-23T13:09:51.264Z,73.02
2016-12-23T13:11:01.075Z,72.74
2016-12-23T13:12:10.923Z,72.64
2016-12-23T13:13:20.721Z,72.74
2016-12-23T13:14:30.609Z,72.45
2016-12-23T13:15:40.457Z,72.83
2016-12-23T13:16:50.307Z,72.74
2016-12-23T13:18:00.187Z,73.02
2016-12-23T13:19:09.981Z,73.21
2016-12-23T13:20:19.811Z,72.92
2016-12-23T13:21:29.616Z,72.92
2016-12-23T13:22:39.155Z,72.74
2016-12-23T13:23:48.940Z,72.92
2016-12-23T13:24:58.778Z,73.11
2016-12-23T13:26:08.619Z,73.21
2016-12-23T13:27:18.141Z,73.21
2016-12-23T13:28:28.077Z,73.59
2016-12-23T13:29:37.553Z,73.69
2016-12-23T13:30:47.060Z,73.21
2016-12-23T13:31:56.912Z,73.46
2016-12-23T13:33:06.710Z,73.46
2016-12-23T13:34:16.557Z,73.74
2016-12-23T13:35:26.141Z,73.84
2016-12-23T13:36:36.004Z,73.84
2016-12-23T13:37:45.499Z,73.65
2016-12-23T13:38:55.316Z,73.93
2016-12-23T13:40:05.193Z,73.84
2016-12-23T13:41:15.077Z,74.12
2016-12-23T13:42:24.945Z,74.12
2016-12-23T13:43:34.809Z,73.93
2016-12-23T13:44:44.641Z,73.93
2016-12-23T13:45:54.539Z,74.18
2016-12-23T13:47:04.158Z,74.22
2016-12-23T13:48:13.802Z,74.12
2016-12-23T13:49:23.592Z,74.22
2016-12-23T13:50:33.427Z,74.08
2016-12-23T13:51:43.246Z,74.08
2016-12-23T13:52:53.061Z,74.27
2016-12-23T13:54:02.878Z,74.47
2016-12-23T13:55:12.684Z,74.56
2016-12-23T13:56:22.572Z,74.66
2016-12-23T13:57:32.350Z,74.47
2016-12-23T13:58:42.214Z,74.47
2016-12-23T13:59:52.023Z,74.37
2016-12-23T14:01:01.540Z,74.18
2016-12-23T14:02:11.031Z,74.27
2016-12-23T14:03:20.968Z,74.37
2016-12-23T14:04:30.776Z,74.75
2016-12-23T14:05:40.577Z,74.47
2016-12-23T14:06:50.448Z,74.75
2016-12-23T14:08:00.282Z,74.27
2016-12-23T14:09:10.098Z,74.47
2016-12-23T14:10:19.620Z,74.66
2016-12-23T14:11:29.489Z,74.66
2016-12-23T14:12:39.298Z,74.56
2016-12-23T14:13:48.943Z,75.04
2016-12-23T14:14:58.132Z,74.94
2016-12-23T14:16:07.949Z,75.23
2016-12-23T14:17:17.480Z,75.51
2016-12-23T14:18:27.301Z,75.23
2016-12-23T14:19:37.104Z,75.42
2016-12-23T14:20:46.930Z,75.32
2016-12-23T14:21:56.747Z,75.42
2016-12-23T14:23:06.708Z,75.99
2016-12-23T14:24:16.572Z,75.7
2016-12-23T14:25:26.366Z,75.42
2016-12-23T14:26:36.145Z,75.99
2016-12-23T14:27:45.698Z,75.7
2016-12-23T14:28:55.522Z,75.99
2016-12-23T14:30:05.022Z,75.7
2016-12-23T14:31:14.845Z,75.99
2016-12-23T14:32:24.629Z,76.27
2016-12-23T14:33:34.529Z,75.79
2016-12-23T14:34:44.379Z,75.67
2016-12-23T14:35:54.340Z,75.95
2016-12-23T14:37:04.165Z,75.76
2016-12-23T14:38:14.031Z,76.23
2016-12-23T14:39:23.567Z,76.14
2016-12-23T14:40:33.506Z,76.42
2016-12-23T14:41:43.304Z,76.23
2016-12-23T14:42:53.102Z,76.9
2016-12-23T14:44:03.001Z,76.8
2016-12-23T14:45:12.795Z,76.52
2016-12-23T14:46:22.828Z,76.9
2016-12-23T14:47:32.616Z,76.8
2016-12-23T14:48:42.103Z,76.9
2016-12-23T14:49:51.923Z,76.71
2016-12-23T14:51:01.748Z,76.8
2016-12-23T14:52:11.532Z,76.61
2016-12-23T14:53:21.434Z,77.47
2016-12-23T14:54:31.267Z,76.8
2016-12-23T14:55:41.098Z,77.47
2016-12-23T14:56:50.963Z,77.56
2016-12-23T14:58:00.450Z,77.75
2016-12-23T14:59:10.344Z,77.94
2016-12-23T15:00:20.164Z,77.84